createdAt,value
2018-04-15T00:01:06.877Z,10.20
2018-04-15T00:03:18.270Z,11.00
2018-04-15T00:05:29.666Z,11.00
2018-04-15T00:07:41.840Z,10.90
2018-04-15T00:09:53.266Z,10.90
2018-04-15T00:12:04.678Z,10.80
2018-04-15T00:14:16.089Z,9.90
2018-04-15T00:16:27.617Z,10.80
2018-04-15T00:18:39.022Z,10.80
2018-04-15T00:20:51.475Z,10.70
2018-04-15T00:23:03.582Z,10.70
2018-04-15T00:25:15.050Z,9.80
2018-04-15T00:27:27.618Z,10.60
2018-04-15T00:29:39.018Z,10.60
2018-04-15T00:31:50.438Z,10.50
2018-04-15T00:34:01.877Z,10.50
2018-04-15T00:36:13.271Z,10.50
2018-04-15T00:38:25.404Z,10.40
2018-04-15T00:40:38.346Z,10.40
2018-04-15T00:42:49.714Z,7.30
2018-04-15T00:45:01.144Z,8.80
2018-04-15T00:47:13.305Z,10.40
2018-04-15T00:49:25.090Z,10.40
2018-04-15T00:51:36.505Z,10.30
2018-04-15T00:54:00.877Z,10.20
2018-04-15T00:56:12.233Z,10.20
2018-04-15T00:58:23.691Z,9.10
2018-04-15T01:00:35.159Z,10.10
2018-04-15T01:02:46.594Z,8.80
2018-04-15T01:04:59.297Z,10.10
2018-04-15T01:07:10.730Z,10.80
2018-04-15T01:09:22.120Z,9.90
2018-04-15T01:11:33.599Z,11.00
2018-04-15T01:13:45.011Z,10.10
2018-04-15T01:15:56.426Z,10.10
2018-04-15T01:18:08.049Z,10.10
2018-04-15T01:20:20.144Z,10.00
2018-04-15T01:22:31.682Z,9.80
2018-04-15T01:24:43.864Z,9.80
2018-04-15T01:26:55.258Z,6.60
2018-04-15T01:29:08.099Z,9.80
2018-04-15T01:31:19.525Z,8.70
2018-04-15T01:33:31.875Z,9.70
2018-04-15T01:35:43.242Z,9.70
2018-04-15T01:37:55.475Z,9.70
2018-04-15T01:40:07.388Z,9.60
2018-04-15T01:42:18.787Z,9.70
2018-04-15T01:44:30.537Z,6.60
2018-04-15T01:46:42.259Z,9.50
2018-04-15T01:48:54.218Z,9.30
2018-04-15T01:51:05.705Z,8.00
2018-04-15T01:53:17.109Z,9.20
2018-04-15T01:55:28.522Z,8.40
2018-04-15T01:57:40.643Z,9.20
2018-04-15T01:59:52.864Z,8.80
2018-04-15T02:02:04.221Z,10.30
2018-04-15T02:04:15.635Z,9.30
2018-04-15T02:06:27.003Z,9.30
2018-04-15T02:08:38.390Z,9.40
2018-04-15T02:10:49.818Z,9.40
2018-04-15T02:13:01.999Z,9.30
2018-04-15T02:15:13.482Z,6.00
2018-04-15T02:17:24.843Z,9.30
2018-04-15T02:19:36.358Z,6.60
2018-04-15T02:21:48.532Z,9.50
2018-04-15T02:24:00.020Z,9.50
2018-04-15T02:26:11.378Z,9.40
2018-04-15T02:28:22.810Z,8.30
2018-04-15T02:30:34.338Z,9.50
2018-04-15T02:32:45.990Z,9.50
2018-04-15T02:34:57.503Z,9.60
2018-04-15T02:37:08.915Z,9.60
2018-04-15T02:39:21.046Z,9.70
2018-04-15T02:41:32.402Z,9.70
2018-04-15T02:43:44.518Z,9.80
2018-04-15T02:45:56.074Z,9.70
2018-04-15T02:48:08.349Z,9.80
2018-04-15T02:50:19.811Z,9.80
2018-04-15T02:52:31.222Z,9.80
2018-04-15T02:54:42.620Z,9.80
2018-04-15T02:56:54.761Z,9.60
2018-04-15T02:59:06.194Z,9.50
2018-04-15T03:01:18.481Z,9.50
2018-04-15T03:03:30.574Z,9.40
2018-04-15T03:05:42.002Z,9.40
2018-04-15T03:07:53.466Z,9.40
2018-04-15T03:10:04.853Z,7.70
2018-04-15T03:12:16.280Z,8.40
2018-04-15T03:14:28.049Z,9.10
2018-04-15T03:16:40.201Z,9.10
2018-04-15T03:18:51.642Z,8.90
2018-04-15T03:21:03.952Z,7.70
2018-04-15T03:23:15.338Z,9.10
2018-04-15T03:25:28.011Z,8.90
2018-04-15T03:27:39.459Z,7.30
2018-04-15T03:29:51.033Z,8.40
2018-04-15T03:32:03.183Z,9.10
2018-04-15T03:34:15.152Z,9.00
2018-04-15T03:36:27.452Z,9.00
2018-04-15T03:38:38.832Z,8.90
2018-04-15T03:40:50.229Z,8.90
2018-04-15T03:43:01.653Z,8.90
2018-04-15T03:45:14.495Z,8.90
2018-04-15T03:47:26.826Z,8.80
2018-04-15T03:49:38.797Z,8.80
2018-04-15T03:51:50.177Z,5.90
2018-04-15T03:54:01.582Z,8.80
2018-04-15T03:56:14.077Z,8.70
2018-04-15T03:58:26.033Z,8.80
2018-04-15T04:00:38.199Z,8.70
2018-04-15T04:02:49.618Z,8.70
2018-04-15T04:05:01.084Z,8.70
2018-04-15T04:07:13.289Z,8.70
2018-04-15T04:09:25.508Z,10.80
2018-04-15T04:11:36.863Z,8.70
2018-04-15T04:13:50.160Z,8.80
2018-04-15T04:16:02.133Z,8.70
2018-04-15T04:18:25.779Z,8.70
2018-04-15T04:20:49.409Z,8.70
2018-04-15T04:23:13.170Z,8.20
2018-04-15T04:25:36.854Z,8.40
2018-04-15T04:27:48.253Z,8.60
2018-04-15T04:29:59.662Z,8.60
2018-04-15T04:32:11.923Z,8.60
2018-04-15T04:34:23.386Z,8.60
2018-04-15T04:36:34.791Z,8.60
2018-04-15T04:38:47.141Z,8.30
2018-04-15T04:40:58.547Z,8.30
2018-04-15T04:43:10.972Z,8.30
2018-04-15T04:45:22.422Z,8.30
2018-04-15T04:47:34.557Z,8.10
2018-04-15T04:49:45.971Z,8.10
2018-04-15T04:51:58.157Z,8.10
2018-04-15T04:54:09.522Z,8.00
2018-04-15T04:56:21.933Z,8.00
2018-04-15T04:58:33.907Z,8.00
2018-04-15T05:00:45.398Z,8.00
2018-04-15T05:02:56.803Z,7.80
2018-04-15T05:05:08.258Z,6.70
2018-04-15T05:07:19.682Z,9.30
2018-04-15T05:09:31.091Z,8.10
2018-04-15T05:11:43.230Z,8.20
2018-04-15T05:13:55.725Z,8.10
2018-04-15T05:16:07.161Z,8.20
2018-04-15T05:18:19.259Z,8.40
2018-04-15T05:20:31.591Z,8.60
2018-04-15T05:22:43.033Z,7.30
2018-04-15T05:24:54.509Z,8.80
2018-04-15T05:27:05.898Z,7.50
2018-04-15T05:29:17.985Z,9.30
2018-04-15T05:31:29.934Z,7.40
2018-04-15T05:33:41.377Z,8.00
2018-04-15T05:35:52.925Z,9.20
2018-04-15T05:38:05.139Z,10.20
2018-04-15T05:40:17.457Z,9.10
2018-04-15T05:42:28.972Z,10.40
2018-04-15T05:44:40.445Z,10.70
2018-04-15T05:46:51.806Z,10.30
2018-04-15T05:49:03.242Z,11.30
2018-04-15T05:51:14.667Z,11.60
2018-04-15T05:53:26.053Z,11.90
2018-04-15T05:55:37.466Z,12.20
2018-04-15T05:57:48.926Z,12.40
2018-04-15T06:00:00.333Z,12.60
2018-04-15T06:02:11.730Z,12.70
2018-04-15T06:04:23.209Z,11.20
2018-04-15T06:06:34.697Z,13.20
2018-04-15T06:08:46.082Z,13.10
2018-04-15T06:10:57.473Z,13.30
2018-04-15T06:13:10.683Z,13.40
2018-04-15T06:15:22.140Z,13.70
2018-04-15T06:17:33.600Z,13.90
2018-04-15T06:19:45.112Z,14.20
2018-04-15T06:21:56.520Z,13.20
2018-04-15T06:24:08.062Z,14.70
2018-04-15T06:26:19.422Z,13.90
2018-04-15T06:28:30.996Z,15.00
2018-04-15T06:30:42.469Z,15.20
2018-04-15T06:32:53.878Z,15.00
2018-04-15T06:35:05.308Z,15.20
2018-04-15T06:37:16.738Z,15.10
2018-04-15T06:39:28.285Z,15.40
2018-04-15T06:41:40.433Z,15.50
2018-04-15T06:43:51.987Z,14.90
2018-04-15T06:46:03.374Z,15.60
2018-04-15T06:48:14.806Z,14.80
2018-04-15T06:50:26.231Z,15.20
2018-04-15T06:52:37.644Z,16.10
2018-04-15T06:54:49.010Z,16.30
2018-04-15T06:57:00.476Z,16.50
2018-04-15T06:59:11.860Z,16.40
2018-04-15T07:01:23.287Z,17.00
2018-04-15T07:03:35.436Z,17.70
2018-04-15T07:05:46.861Z,17.50
2018-04-15T07:07:58.439Z,17.80
2018-04-15T07:10:11.020Z,16.50
2018-04-15T07:12:22.413Z,18.30
2018-04-15T07:14:34.004Z,18.40
2018-04-15T07:16:45.435Z,18.80
2018-04-15T07:18:56.931Z,19.30
2018-04-15T07:21:08.428Z,19.50
2018-04-15T07:23:19.829Z,19.40
2018-04-15T07:25:31.303Z,19.50
2018-04-15T07:27:42.795Z,19.80
2018-04-15T07:29:54.207Z,19.80
2018-04-15T07:32:05.602Z,19.20
2018-04-15T07:34:17.020Z,20.10
2018-04-15T07:36:28.487Z,20.40
2018-04-15T07:38:39.864Z,20.40
2018-04-15T07:40:51.276Z,20.20
2018-04-15T07:43:02.671Z,18.30
2018-04-15T07:45:15.220Z,20.00
2018-04-15T07:47:26.713Z,19.90
2018-04-15T07:49:38.217Z,19.00
2018-04-15T07:51:49.733Z,20.10
2018-04-15T07:54:01.147Z,18.70
2018-04-15T07:56:12.656Z,20.10
2018-04-15T07:58:24.474Z,17.50
2018-04-15T08:00:36.701Z,20.30
2018-04-15T08:02:48.075Z,20.20
2018-04-15T08:05:00.277Z,19.20
2018-04-15T08:07:12.782Z,20.20
2018-04-15T08:09:25.013Z,20.00
2018-04-15T08:11:37.750Z,20.00
2018-04-15T08:13:49.138Z,20.10
2018-04-15T08:16:00.599Z,20.00
2018-04-15T08:18:12.004Z,20.10
2018-04-15T08:20:23.662Z,20.00
2018-04-15T08:22:35.106Z,19.90
2018-04-15T08:24:46.645Z,19.90
2018-04-15T08:26:57.992Z,20.00
2018-04-15T08:29:09.400Z,20.00
2018-04-15T08:31:20.813Z,20.00
2018-04-15T08:33:33.547Z,19.90
2018-04-15T08:35:45.009Z,19.90
2018-04-15T08:37:56.630Z,19.70
2018-04-15T08:40:08.120Z,19.90
